Alma, New York
Current Conditions -  °F | °C
As of 10:56 AM on Friday 28 Nov 2014 (Local Time) from KELZ Reporting Station
Overcast Overcast  
Wind Chill:   Ceiling: 3300
Heat Index: 21°   Visibility: 10mi
Dew Point:   Wind: 20mph
Humidity: 55%   Direction: 300°WNW
Pressure: 30.16"   Gusts: 28mph
Location:  42.01°N, 78.06°W
Report Text: KELZ 281556Z AUTO 30017G24KT 10SM OVC033 M06/M14 A3016 RMK AO2 UPB44E53 SLP246 P0000 T10611139
Loading
Personal Weather Stations






























Interactive Weather Map New forecast layout! Learn more

10-Day Weather Forecast

Advertisements
Track Severe Weather on mobile